createdAt,value
2019-04-16T00:02:42.526Z,4.40
2019-04-16T00:05:29.028Z,4.50
2019-04-16T00:08:26.474Z,4.33
2019-04-16T00:10:51.259Z,3.83
2019-04-16T00:13:30.820Z,4.00
2019-04-16T00:16:03.000Z,4.10
2019-04-16T00:18:33.604Z,4.37
2019-04-16T00:21:32.411Z,4.67
2019-04-16T00:24:18.160Z,4.40
2019-04-16T00:26:46.801Z,4.67
2019-04-16T00:29:17.396Z,4.30
2019-04-16T00:31:57.385Z,3.87
2019-04-16T00:34:28.050Z,4.43
2019-04-16T00:36:58.748Z,4.03
2019-04-16T00:39:29.340Z,4.77
2019-04-16T00:41:59.971Z,4.17
2019-04-16T00:44:30.692Z,4.23
2019-04-16T00:47:01.364Z,3.70
2019-04-16T00:49:31.957Z,4.77
2019-04-16T00:52:05.919Z,3.90
2019-04-16T00:54:34.867Z,4.70
2019-04-16T00:57:05.801Z,4.43
2019-04-16T00:59:36.470Z,4.23
2019-04-16T01:02:07.119Z,3.87
2019-04-16T01:04:37.699Z,4.30
2019-04-16T01:07:08.292Z,4.50
2019-04-16T01:09:38.965Z,4.60
2019-04-16T01:12:09.571Z,3.87
2019-04-16T01:14:40.272Z,4.70
2019-04-16T01:17:10.935Z,4.60
2019-04-16T01:19:41.939Z,4.40
2019-04-16T01:22:15.699Z,4.50
2019-04-16T01:24:44.996Z,4.87
2019-04-16T01:27:16.823Z,5.00
2019-04-16T01:29:47.419Z,5.47
2019-04-16T01:32:36.953Z,5.23
2019-04-16T01:35:28.451Z,4.90
2019-04-16T01:38:17.100Z,4.90
2019-04-16T01:41:14.072Z,4.70
2019-04-16T01:43:44.701Z,5.20
2019-04-16T01:46:15.263Z,5.80
2019-04-16T01:48:45.959Z,5.30
2019-04-16T01:51:16.564Z,5.93
2019-04-16T01:53:49.493Z,5.07
2019-04-16T01:56:19.572Z,5.47
2019-04-16T01:58:51.158Z,4.97
2019-04-16T02:01:21.829Z,5.43
2019-04-16T02:03:52.421Z,4.47
2019-04-16T02:06:25.618Z,5.33
2019-04-16T02:08:55.284Z,5.27
2019-04-16T02:11:25.874Z,5.00
2019-04-16T02:13:56.545Z,5.10
2019-04-16T02:16:27.278Z,4.67
2019-04-16T02:19:00.752Z,4.60
2019-04-16T02:21:30.274Z,5.73
2019-04-16T02:24:01.157Z,5.50
2019-04-16T02:26:31.828Z,5.20
2019-04-16T02:29:02.515Z,4.93
2019-04-16T02:31:33.265Z,4.63
2019-04-16T02:34:03.951Z,5.33
2019-04-16T02:36:34.538Z,4.70
2019-04-16T02:39:06.584Z,4.67
2019-04-16T02:41:37.303Z,4.43
2019-04-16T02:44:14.601Z,4.10
2019-04-16T02:46:40.387Z,4.73
2019-04-16T02:49:11.188Z,4.77
2019-04-16T02:51:56.088Z,4.33
2019-04-16T02:54:54.665Z,4.60
2019-04-16T02:57:42.521Z,4.10
2019-04-16T03:00:34.671Z,4.63
2019-04-16T03:03:09.834Z,4.03
2019-04-16T03:05:46.538Z,4.17
2019-04-16T03:08:17.282Z,4.40
2019-04-16T03:10:49.545Z,4.23
2019-04-16T03:13:23.087Z,4.60
2019-04-16T03:16:12.455Z,3.90
2019-04-16T03:19:00.179Z,4.07
2019-04-16T03:21:30.802Z,4.30
2019-04-16T03:24:01.472Z,4.40
2019-04-16T03:26:32.015Z,4.40
2019-04-16T03:29:03.317Z,4.00
2019-04-16T03:31:33.938Z,4.07
2019-04-16T03:34:06.868Z,4.37
2019-04-16T03:36:37.809Z,3.73
2019-04-16T03:39:13.187Z,3.67
2019-04-16T03:41:41.767Z,4.43
2019-04-16T03:44:12.357Z,3.40
2019-04-16T03:46:46.075Z,4.47
2019-04-16T03:49:15.195Z,4.13
2019-04-16T03:51:45.790Z,4.60
2019-04-16T03:54:18.858Z,4.03
2019-04-16T03:56:48.653Z,4.10
2019-04-16T03:59:19.255Z,4.40
2019-04-16T04:01:49.925Z,4.57
2019-04-16T04:04:22.093Z,4.40
2019-04-16T04:06:52.687Z,4.07
2019-04-16T04:09:23.344Z,4.37
2019-04-16T04:11:53.966Z,4.07
2019-04-16T04:14:24.631Z,4.10
2019-04-16T04:16:55.375Z,4.17
2019-04-16T04:19:26.140Z,4.20
2019-04-16T04:21:56.801Z,3.63
2019-04-16T04:24:28.458Z,4.63
2019-04-16T04:26:59.670Z,4.10
2019-04-16T04:29:30.258Z,3.97
2019-04-16T04:32:03.421Z,3.83
2019-04-16T04:34:33.180Z,4.63
2019-04-16T04:37:03.789Z,3.83
2019-04-16T04:39:34.448Z,3.83
2019-04-16T04:42:05.022Z,3.93
2019-04-16T04:44:36.898Z,3.50
2019-04-16T04:47:08.062Z,4.43
2019-04-16T04:49:39.796Z,3.83
2019-04-16T04:52:13.598Z,3.60
2019-04-16T04:54:42.654Z,4.20
2019-04-16T04:57:13.256Z,4.93
2019-04-16T04:59:44.806Z,4.20
2019-04-16T05:02:15.902Z,3.20
2019-04-16T05:05:11.962Z,4.33
2019-04-16T05:07:42.519Z,4.10
2019-04-16T05:10:13.337Z,4.10
2019-04-16T05:12:44.045Z,4.00
2019-04-16T05:15:14.730Z,3.40
2019-04-16T05:17:45.403Z,4.37
2019-04-16T05:20:16.460Z,3.87
2019-04-16T05:22:47.444Z,3.80
2019-04-16T05:25:19.044Z,3.87
2019-04-16T05:27:49.732Z,3.93
2019-04-16T05:30:21.714Z,4.20
2019-04-16T05:32:52.776Z,4.20
2019-04-16T05:35:23.353Z,3.30
2019-04-16T05:37:53.977Z,3.93
2019-04-16T05:40:28.021Z,3.87
2019-04-16T05:42:59.686Z,4.07
2019-04-16T05:45:31.389Z,3.83
2019-04-16T05:48:01.951Z,4.13
2019-04-16T05:50:32.542Z,4.10
2019-04-16T05:53:05.528Z,4.30
2019-04-16T05:55:41.601Z,4.30
2019-04-16T05:58:12.212Z,3.50
2019-04-16T06:01:01.933Z,4.20
2019-04-16T06:03:32.778Z,4.30
2019-04-16T06:06:03.418Z,3.67
2019-04-16T06:08:34.051Z,4.30
2019-04-16T06:11:04.764Z,4.33
2019-04-16T06:13:58.294Z,4.50
2019-04-16T06:16:37.569Z,4.23
2019-04-16T06:19:25.782Z,4.03
2019-04-16T06:22:08.175Z,3.70
2019-04-16T06:25:11.082Z,4.07
2019-04-16T06:27:53.388Z,4.20
2019-04-16T06:30:45.993Z,4.30
2019-04-16T06:33:30.790Z,4.73
2019-04-16T06:36:32.512Z,4.07
2019-04-16T06:39:32.425Z,4.33
2019-04-16T06:42:21.474Z,3.80
2019-04-16T06:44:54.257Z,4.30
2019-04-16T06:47:43.112Z,4.30
2019-04-16T06:50:31.250Z,4.30
2019-04-16T06:53:10.554Z,4.40
2019-04-16T06:55:54.511Z,4.13
2019-04-16T06:58:50.637Z,4.53
2019-04-16T07:01:36.705Z,4.87
2019-04-16T07:04:09.318Z,4.93
2019-04-16T07:07:08.005Z,4.33
2019-04-16T07:09:56.705Z,4.90
2019-04-16T07:12:27.581Z,4.47
2019-04-16T07:14:58.411Z,4.60
2019-04-16T07:17:32.922Z,4.47
2019-04-16T07:20:04.497Z,4.13
2019-04-16T07:22:33.923Z,3.80
2019-04-16T07:25:06.518Z,5.47
2019-04-16T07:28:02.244Z,4.83
2019-04-16T07:30:40.402Z,4.47
2019-04-16T07:33:21.859Z,4.33
2019-04-16T07:36:10.576Z,4.60
2019-04-16T07:38:59.178Z,4.50
2019-04-16T07:42:09.787Z,4.40
2019-04-16T07:44:55.016Z,4.47
2019-04-16T07:47:51.694Z,4.63
2019-04-16T07:50:34.212Z,5.33
2019-04-16T07:53:26.034Z,5.07
2019-04-16T07:55:59.709Z,4.40
2019-04-16T07:58:30.811Z,4.93
2019-04-16T08:01:01.626Z,5.10
2019-04-16T08:03:32.298Z,4.17
2019-04-16T08:06:05.188Z,4.47
2019-04-16T08:08:35.956Z,4.70
2019-04-16T08:11:06.742Z,4.93
2019-04-16T08:13:37.803Z,4.70
2019-04-16T08:16:08.470Z,4.93
2019-04-16T08:18:48.341Z,5.50
2019-04-16T08:21:22.275Z,4.42
2019-04-16T08:24:01.897Z,4.93
2019-04-16T08:26:32.503Z,5.07
2019-04-16T08:29:03.260Z,5.00
2019-04-16T08:31:36.662Z,4.97
2019-04-16T08:34:07.437Z,5.13
2019-04-16T08:36:38.116Z,4.60
2019-04-16T08:39:11.059Z,5.40
2019-04-16T08:41:41.742Z,4.73
2019-04-16T08:44:12.344Z,5.22
2019-04-16T08:46:43.451Z,4.73
2019-04-16T08:49:15.200Z,7.47
2019-04-16T08:51:49.069Z,5.07
2019-04-16T08:54:19.695Z,4.08
2019-04-16T08:56:50.383Z,5.97
2019-04-16T08:59:21.069Z,5.00
2019-04-16T09:01:54.418Z,4.80
2019-04-16T09:04:24.452Z,5.13
2019-04-16T09:06:55.127Z,4.70
2019-04-16T09:09:33.022Z,5.57
2019-04-16T09:12:09.132Z,5.60
2019-04-16T09:14:54.962Z,4.77
2019-04-16T09:17:29.706Z,5.30
2019-04-16T09:20:07.452Z,4.67
2019-04-16T09:22:48.914Z,5.03
2019-04-16T09:25:29.127Z,4.70
2019-04-16T09:28:25.690Z,5.17
2019-04-16T09:31:12.471Z,4.53
2019-04-16T09:33:57.444Z,5.05
2019-04-16T09:36:48.199Z,5.20
2019-04-16T09:39:30.315Z,4.95
2019-04-16T09:42:00.978Z,5.05
2019-04-16T09:44:35.233Z,5.10
2019-04-16T09:47:05.620Z,4.87
2019-04-16T09:49:37.675Z,5.57
2019-04-16T09:52:08.673Z,6.20
2019-04-16T09:54:41.558Z,4.90
2019-04-16T09:57:11.618Z,5.67
2019-04-16T09:59:47.717Z,5.43
2019-04-16T10:02:24.196Z,5.45
2019-04-16T10:04:54.870Z,5.92
2019-04-16T10:07:25.948Z,5.80
2019-04-16T10:09:56.566Z,5.30
2019-04-16T10:12:27.257Z,6.13
2019-04-16T10:14:58.220Z,6.20
2019-04-16T10:17:28.897Z,5.77
2019-04-16T10:19:59.604Z,5.83
2019-04-16T10:22:30.626Z,5.53
2019-04-16T10:25:14.810Z,5.43
2019-04-16T10:27:51.709Z,5.47
2019-04-16T10:30:30.242Z,5.77
2019-04-16T10:33:01.099Z,6.87
2019-04-16T10:35:31.794Z,6.77
2019-04-16T10:38:13.942Z,6.43
2019-04-16T10:40:48.450Z,6.40
2019-04-16T10:43:44.671Z,6.58
2019-04-16T10:46:45.760Z,5.97
2019-04-16T10:49:35.219Z,6.17
2019-04-16T10:52:24.391Z,5.83
2019-04-16T10:55:18.785Z,6.80
2019-04-16T10:58:04.468Z,6.00
2019-04-16T11:00:54.943Z,6.73
2019-04-16T11:03:35.737Z,6.03
2019-04-16T11:06:13.418Z,5.60
2019-04-16T11:08:44.138Z,5.80
2019-04-16T11:11:15.897Z,6.08
2019-04-16T11:13:59.772Z,6.60
2019-04-16T11:16:21.011Z,6.30
2019-04-16T11:18:54.854Z,6.23
2019-04-16T11:21:23.960Z,7.77
2019-04-16T11:23:54.718Z,6.63
2019-04-16T11:26:25.407Z,7.93
2019-04-16T11:28:56.110Z,7.57
2019-04-16T11:31:26.995Z,6.63
2019-04-16T11:33:57.651Z,6.63
2019-04-16T11:36:30.973Z,6.27
2019-04-16T11:39:00.699Z,7.00
2019-04-16T11:41:32.933Z,7.10
2019-04-16T11:44:15.262Z,7.33
2019-04-16T11:46:36.133Z,7.30
2019-04-16T11:49:06.791Z,5.67
2019-04-16T11:51:37.466Z,7.20
2019-04-16T11:54:11.212Z,7.13
2019-04-16T11:56:42.016Z,6.83
2019-04-16T11:59:13.064Z,7.27
2019-04-16T12:02:04.720Z,6.67
2019-04-16T12:04:58.806Z,7.57
2019-04-16T12:07:40.274Z,7.33
2019-04-16T12:10:46.008Z,7.67
2019-04-16T12:13:31.779Z,6.97
2019-04-16T12:16:16.194Z,7.63
2019-04-16T12:19:04.454Z,6.73
2019-04-16T12:21:44.141Z,6.43
2019-04-16T12:24:29.417Z,6.83
2019-04-16T12:27:19.430Z,7.13
2019-04-16T12:30:11.263Z,7.43
2019-04-16T12:32:49.458Z,7.00
2019-04-16T12:35:37.811Z,6.83
2019-04-16T12:38:18.634Z,7.23
2019-04-16T12:41:00.895Z,7.00
2019-04-16T12:43:37.389Z,6.77
2019-04-16T12:46:33.094Z,6.20
2019-04-16T12:49:28.917Z,7.57
2019-04-16T12:52:17.512Z,7.50
2019-04-16T12:55:17.850Z,7.53
2019-04-16T12:58:07.194Z,7.83
2019-04-16T13:00:59.766Z,7.50
2019-04-16T13:04:01.478Z,6.90
2019-04-16T13:06:55.210Z,7.80
2019-04-16T13:09:44.867Z,7.90
2019-04-16T13:12:40.636Z,6.78
2019-04-16T13:15:33.252Z,7.00
2019-04-16T13:18:11.334Z,8.70
2019-04-16T13:20:57.263Z,7.13
2019-04-16T13:23:34.746Z,7.83
2019-04-16T13:26:12.862Z,7.43
2019-04-16T13:28:55.431Z,7.97
2019-04-16T13:31:25.151Z,8.90
2019-04-16T13:33:55.719Z,7.83
2019-04-16T13:36:27.800Z,8.67
2019-04-16T13:39:25.079Z,6.23
2019-04-16T13:41:55.796Z,8.60
2019-04-16T13:44:29.473Z,8.53
2019-04-16T13:47:03.043Z,8.00
2019-04-16T13:49:44.350Z,8.70
2019-04-16T13:52:16.977Z,8.50
2019-04-16T13:55:10.559Z,7.43
2019-04-16T13:57:41.851Z,9.13
2019-04-16T14:00:18.321Z,7.45
2019-04-16T14:02:52.124Z,8.43
2019-04-16T14:05:23.609Z,9.43
2019-04-16T14:07:54.377Z,7.40
2019-04-16T14:10:25.065Z,8.88
2019-04-16T14:12:55.749Z,9.37
2019-04-16T14:15:32.460Z,8.37
2019-04-16T14:18:01.359Z,8.60
2019-04-16T14:20:32.616Z,7.73
2019-04-16T14:23:03.911Z,8.80
2019-04-16T14:25:34.740Z,9.20
2019-04-16T14:28:05.436Z,7.30
2019-04-16T14:30:42.913Z,9.47
2019-04-16T14:33:21.719Z,9.13
2019-04-16T14:35:52.882Z,9.33
2019-04-16T14:38:32.010Z,9.67
2019-04-16T14:41:03.028Z,10.17
2019-04-16T14:43:37.711Z,9.20
2019-04-16T14:46:09.700Z,9.33
2019-04-16T14:48:45.216Z,9.17
2019-04-16T14:51:12.739Z,8.67
2019-04-16T14:54:02.442Z,7.93
2019-04-16T14:56:53.468Z,9.27
2019-04-16T14:59:42.265Z,10.00
2019-04-16T15:02:31.898Z,8.23
2019-04-16T15:05:15.773Z,8.53
2019-04-16T15:08:10.987Z,8.67
2019-04-16T15:10:49.926Z,7.47
2019-04-16T15:13:48.093Z,10.03
2019-04-16T15:16:37.549Z,10.43
2019-04-16T15:19:27.478Z,8.77
2019-04-16T15:22:15.793Z,9.97
2019-04-16T15:24:59.674Z,8.80
2019-04-16T15:27:51.892Z,10.77
2019-04-16T15:30:40.532Z,8.47
2019-04-16T15:33:39.064Z,9.88
2019-04-16T15:36:40.292Z,8.78
2019-04-16T15:39:24.264Z,8.60
2019-04-16T15:42:17.191Z,9.03
2019-04-16T15:45:08.444Z,10.60
2019-04-16T15:47:56.069Z,9.70
2019-04-16T15:50:37.131Z,8.97
2019-04-16T15:53:26.726Z,8.67
2019-04-16T15:56:28.608Z,9.47
2019-04-16T15:59:16.571Z,9.93
2019-04-16T16:02:24.455Z,9.80
2019-04-16T16:05:06.452Z,9.17
2019-04-16T16:07:43.457Z,9.63
2019-04-16T16:10:23.666Z,10.13
2019-04-16T16:12:54.569Z,10.63
2019-04-16T16:15:26.214Z,9.80
2019-04-16T16:17:57.109Z,9.03
2019-04-16T16:20:27.843Z,7.93
2019-04-16T16:22:59.509Z,9.17
2019-04-16T16:25:30.485Z,9.77
2019-04-16T16:28:01.216Z,11.07
2019-04-16T16:30:31.904Z,11.63
2019-04-16T16:33:02.604Z,11.10
2019-04-16T16:35:35.040Z,10.00
2019-04-16T16:38:06.029Z,11.50
2019-04-16T16:40:36.757Z,9.97
2019-04-16T16:43:08.724Z,9.47
2019-04-16T16:46:10.607Z,9.07
2019-04-16T16:48:41.290Z,10.10
2019-04-16T16:51:14.799Z,9.13
2019-04-16T16:53:54.799Z,9.80
2019-04-16T16:56:44.557Z,11.80
2019-04-16T16:59:30.971Z,11.80
2019-04-16T17:02:23.585Z,8.47
2019-04-16T17:04:54.559Z,11.07
2019-04-16T17:07:26.346Z,9.50
2019-04-16T17:09:57.097Z,11.67
2019-04-16T17:12:28.727Z,10.03
2019-04-16T17:14:59.386Z,10.43
2019-04-16T17:17:30.097Z,10.90
2019-04-16T17:20:00.874Z,10.63
2019-04-16T17:22:31.583Z,10.00
2019-04-16T17:25:02.226Z,11.78
2019-04-16T17:27:33.001Z,11.60
2019-04-16T17:30:05.422Z,11.40
2019-04-16T17:32:36.205Z,11.17
2019-04-16T17:35:07.935Z,10.73
2019-04-16T17:37:39.615Z,11.63
2019-04-16T17:40:26.331Z,10.08
2019-04-16T17:43:00.954Z,10.17
2019-04-16T17:45:54.483Z,13.13
2019-04-16T17:48:46.237Z,11.87
2019-04-16T17:51:44.968Z,11.00
2019-04-16T17:54:27.608Z,10.72
2019-04-16T17:57:23.054Z,11.40
2019-04-16T18:00:21.084Z,11.43
2019-04-16T18:03:13.721Z,11.50
2019-04-16T18:05:50.041Z,12.20
2019-04-16T18:08:51.665Z,11.50
2019-04-16T18:11:26.073Z,11.18
2019-04-16T18:14:08.810Z,11.87
2019-04-16T18:16:54.213Z,10.23
2019-04-16T18:19:52.418Z,9.60
2019-04-16T18:22:28.308Z,11.37
2019-04-16T18:25:22.787Z,11.12
2019-04-16T18:28:05.468Z,11.60
2019-04-16T18:30:43.264Z,12.17
2019-04-16T18:33:29.238Z,12.27
2019-04-16T18:36:07.038Z,11.78
2019-04-16T18:38:50.633Z,10.87
2019-04-16T18:41:28.561Z,10.13
2019-04-16T18:44:29.777Z,12.30
2019-04-16T18:47:37.998Z,11.67
2019-04-16T18:50:11.837Z,11.23
2019-04-16T18:52:42.504Z,11.27
2019-04-16T18:55:13.274Z,11.88
2019-04-16T18:57:44.054Z,12.60
2019-04-16T19:00:33.197Z,12.13
2019-04-16T19:03:05.739Z,10.87
2019-04-16T19:05:36.513Z,11.47
2019-04-16T19:08:07.404Z,11.80
2019-04-16T19:10:38.471Z,12.67
2019-04-16T19:13:11.565Z,12.03
2019-04-16T19:15:41.657Z,12.57
2019-04-16T19:18:19.548Z,11.23
2019-04-16T19:20:44.777Z,12.17
2019-04-16T19:23:15.418Z,11.53
2019-04-16T19:25:46.181Z,11.00
2019-04-16T19:28:20.031Z,11.35
2019-04-16T19:30:51.053Z,11.23
2019-04-16T19:33:23.338Z,11.93
2019-04-16T19:35:54.141Z,12.07
2019-04-16T19:38:24.861Z,12.95
2019-04-16T19:40:55.521Z,13.80
2019-04-16T19:43:28.247Z,12.20
2019-04-16T19:45:59.525Z,12.87
2019-04-16T19:48:35.716Z,10.93
2019-04-16T19:51:02.640Z,12.17
2019-04-16T19:53:33.381Z,11.83
2019-04-16T19:56:04.789Z,13.15
2019-04-16T19:58:35.534Z,10.50
2019-04-16T20:01:06.438Z,11.53
2019-04-16T20:03:38.950Z,13.33
2019-04-16T20:06:09.731Z,11.93
2019-04-16T20:08:40.489Z,12.97
2019-04-16T20:11:11.463Z,12.85
2019-04-16T20:13:43.842Z,12.40
2019-04-16T20:16:14.739Z,13.00
2019-04-16T20:18:51.152Z,11.83
2019-04-16T20:21:17.880Z,11.35
2019-04-16T20:23:48.603Z,13.13
2019-04-16T20:26:19.282Z,11.60
2019-04-16T20:28:50.022Z,12.40
2019-04-16T20:31:20.825Z,13.35
2019-04-16T20:33:51.462Z,14.23
2019-04-16T20:36:23.403Z,13.88
2019-04-16T20:38:55.518Z,12.17
2019-04-16T20:41:27.343Z,11.87
2019-04-16T20:43:57.969Z,11.53
2019-04-16T20:46:28.685Z,12.37
2019-04-16T20:49:08.152Z,11.87
2019-04-16T20:51:31.857Z,12.87
2019-04-16T20:54:03.032Z,13.60
2019-04-16T20:56:33.709Z,11.63
2019-04-16T20:59:05.727Z,13.10
2019-04-16T21:01:37.764Z,12.17
2019-04-16T21:04:08.893Z,12.30
2019-04-16T21:06:41.900Z,10.27
2019-04-16T21:09:13.220Z,12.58
2019-04-16T21:11:44.032Z,11.47
2019-04-16T21:14:14.927Z,10.73
2019-04-16T21:16:45.600Z,12.10
2019-04-16T21:19:23.354Z,11.20
2019-04-16T21:21:48.961Z,11.60
2019-04-16T21:24:19.615Z,10.80
2019-04-16T21:26:51.295Z,12.37
2019-04-16T21:29:33.438Z,11.60
2019-04-16T21:32:04.459Z,11.97
2019-04-16T21:34:41.203Z,11.97
2019-04-16T21:37:37.389Z,13.23
2019-04-16T21:40:08.107Z,11.73
2019-04-16T21:42:38.828Z,12.07
2019-04-16T21:45:09.885Z,11.35
2019-04-16T21:47:40.565Z,12.10
2019-04-16T21:50:16.082Z,11.57
2019-04-16T21:52:43.835Z,10.80
2019-04-16T21:55:15.922Z,12.15
2019-04-16T21:57:47.312Z,12.63
2019-04-16T22:00:46.150Z,12.60
2019-04-16T22:03:19.108Z,12.03
2019-04-16T22:05:49.891Z,11.43
2019-04-16T22:08:21.610Z,11.50
2019-04-16T22:10:52.508Z,12.37
2019-04-16T22:13:23.323Z,11.10
2019-04-16T22:15:57.319Z,10.83
2019-04-16T22:18:26.438Z,10.13
2019-04-16T22:20:57.066Z,11.85
2019-04-16T22:23:27.779Z,10.77
2019-04-16T22:26:01.446Z,10.33
2019-04-16T22:28:30.839Z,10.77
2019-04-16T22:31:01.505Z,10.47
2019-04-16T22:33:32.242Z,11.87
2019-04-16T22:36:03.238Z,11.45
2019-04-16T22:38:35.042Z,10.53
2019-04-16T22:41:16.707Z,11.63
2019-04-16T22:44:09.753Z,11.40
2019-04-16T22:46:45.238Z,11.20
2019-04-16T22:49:18.599Z,11.85
2019-04-16T22:51:49.116Z,10.40
2019-04-16T22:54:20.736Z,10.80
2019-04-16T22:57:02.640Z,9.93
2019-04-16T22:59:32.865Z,10.70
2019-04-16T23:02:08.073Z,10.60
2019-04-16T23:04:38.955Z,10.90
2019-04-16T23:07:09.656Z,11.40
2019-04-16T23:09:40.336Z,11.13
2019-04-16T23:12:11.062Z,10.50
2019-04-16T23:14:41.716Z,11.67
2019-04-16T23:17:14.225Z,11.22
2019-04-16T23:19:44.851Z,10.40
2019-04-16T23:22:15.539Z,10.77
2019-04-16T23:24:48.335Z,10.57
2019-04-16T23:27:19.142Z,11.80
2019-04-16T23:29:49.841Z,10.20
2019-04-16T23:32:20.576Z,11.40
2019-04-16T23:34:51.345Z,10.60
2019-04-16T23:37:23.258Z,11.27
2019-04-16T23:39:54.446Z,11.23
2019-04-16T23:42:25.254Z,10.47
2019-04-16T23:45:04.350Z,11.48
2019-04-16T23:47:46.993Z,10.40
2019-04-16T23:50:44.375Z,11.80
2019-04-16T23:53:24.209Z,11.10
2019-04-16T23:56:23.203Z,11.87
2019-04-16T23:59:15.656Z,9.10
